Aérodrome :
LOGIN :

S'inscrire | Disclaimer

   EN    FR    IT 

 










Légende :    VFR   VFR Marginal   IFR   IFR Intensif   IFR Très Intensif
Visi : 
Plafond : 
>= 8 km
>= 3000ft
5 à 8 km
1000 à 3000 ft
1500m à 5 km
500 à 1000 ft
800 à 1500m
200 à 500 ft
< 800m
< 200 ft
Symboles :   Orages  Brouillard  Fortes neiges  Fortes précipitations  Vent > 20 kt
SIGMETs :   Divers  Orages  Givrage  Turbulence  Onde Orograph.  Cendres Volcan.






- Altitude de l'aérodrome : 463 ft
- Code IATA : SZY
- AEROPORT FERMÉ.


EPSY - Szczytno

DERNIER METAR :
  • 191900Z 23010KT 6000 -RA SCT005 BKN025 04/03 Q1010

METARs EXPIRÉS :
  • 191830Z 21011KT 8000 -RA FEW008 BKN021 05/03 Q1010
  • 191800Z 21009KT 9999 -RA FEW014 BKN027 05/02 Q1010
  • 191730Z 18007KT 9999 -RA FEW014 BKN025 06/01 Q1009
  • 191700Z 17007KT 9999 FEW047 06/01 Q1009
  • 191630Z 17007KT CAVOK 06/01 Q1009

TAF TAF EPSY
Valide du 19 à 18h jusqu'au 20 à 03h UTC


191730Z 1918/2003 20010KT 9999 BKN025
TEMPO 1918/2003 -RA BKN014
PROB30
TEMPO 1918/2003 6000 -SHRA BKN009 BKN014CB



MET'MAP, la Météo Aéronautique d'un coup d'oeil ! - Copyright ORBIFLY Décembre 2007 - Disclaimer

ORBIFLY MET'MAP TEAM :

Programmation & Développement : Alexandra Zaïnal
Sur une idée originale de : Baudouin d'Aumeries
Assistance à la programmation : Marc-Olivier Méhu
Soutien technique & logistique : Manuel Goepfert

Contact : metmap@orbifly.com




SOURCES & CREDITS :

   NOAA